Time;durP1;ratioP1;P1;durP2;ratioP2;P2;SDS_P1;SDS_P2;PMS_P1;PMS_P2;Temp;Humidity;BMP_temperature;BMP_pressure;BME280_temperature;BME280_humidity;BME280_pressure;Samples;Min_cycle;Max_cycle;Signal;HPM_P1;HPM_P2
2022/05/31 00:01:48;;;;;;;;;;;10.20;99.90;;;;;;5091391;28;19981;-67
2022/05/31 00:04:15;;;;;;;;;;;10.20;99.90;;;;;;5091459;28;19963;-67
2022/05/31 00:06:41;;;;;;;;;;;10.20;99.90;;;;;;5091418;28;20391;-67
2022/05/31 00:09:07;;;;;;;;;;;10.20;99.90;;;;;;5090974;28;19998;-67
2022/05/31 00:11:32;;;;;;;;;;;10.20;99.90;;;;;;5091446;28;20744;-67
2022/05/31 00:13:58;;;;;;;;;;;10.20;99.90;;;;;;5091454;28;19927;-67
2022/05/31 00:16:23;;;;;;;;;;;10.20;99.90;;;;;;5091467;28;19920;-67
2022/05/31 00:18:48;;;;;;;;;;;10.20;99.90;;;;;;5094533;28;19915;-67
2022/05/31 00:21:14;;;;;;;;;;;10.20;99.90;;;;;;5095384;28;20311;-67
2022/05/31 00:23:40;;;;;;;;;;;10.10;99.90;;;;;;5095313;28;19916;-67
2022/05/31 00:26:06;;;;;;;;;;;10.10;99.90;;;;;;5095671;28;19927;-67
2022/05/31 00:28:31;;;;;;;;;;;10.20;99.90;;;;;;5095304;28;19916;-67
2022/05/31 00:30:57;;;;;;;;;;;10.20;99.90;;;;;;5095363;28;20383;-67
2022/05/31 00:33:23;;;;;;;;;;;10.10;99.90;;;;;;5095344;28;19920;-67
2022/05/31 00:35:49;;;;;;;;;;;10.10;99.90;;;;;;5095203;28;19920;-67
2022/05/31 00:38:15;;;;;;;;;;;10.10;99.90;;;;;;5095021;28;20414;-67
2022/05/31 00:40:40;;;;;;;;;;;10.10;99.90;;;;;;5094896;28;19969;-67
2022/05/31 00:43:08;;;;;;;;;;;10.10;99.90;;;;;;5095282;28;19961;-67
2022/05/31 00:45:36;;;;;;;;;;;10.20;99.90;;;;;;5095174;28;19958;-67
2022/05/31 00:48:02;;;;;;;;;;;10.10;99.90;;;;;;5095088;28;20323;-67
2022/05/31 00:50:34;;;;;;;;;;;10.20;99.90;;;;;;5094765;28;19915;-67
2022/05/31 00:53:02;;;;;;;;;;;10.20;99.90;;;;;;5094825;28;19922;-67
2022/05/31 00:55:42;;;;;;;;;;;10.20;99.90;;;;;;5094862;28;20333;-67
2022/05/31 00:58:24;;;;;;;;;;;10.10;99.90;;;;;;5094918;28;19923;-68
2022/05/31 01:00:50;;;;;;;;;;;10.10;99.90;;;;;;5094559;28;19920;-67
2022/05/31 01:03:17;;;;;;;;;;;10.10;99.90;;;;;;5094644;28;20011;-67
2022/05/31 01:05:43;;;;;;;;;;;10.10;99.90;;;;;;5094598;28;20563;-67
2022/05/31 01:08:10;;;;;;;;;;;10.10;99.90;;;;;;5094754;28;19919;-67
2022/05/31 01:10:35;;;;;;;;;;;10.00;99.90;;;;;;5094377;28;19923;-66
2022/05/31 01:13:02;;;;;;;;;;;10.00;99.90;;;;;;5094547;28;19916;-67
2022/05/31 01:15:27;;;;;;;;;;;10.00;99.90;;;;;;5094485;28;20394;-67
2022/05/31 01:17:53;;;;;;;;;;;9.90;99.90;;;;;;5094343;28;19970;-67
2022/05/31 01:20:20;;;;;;;;;;;9.90;99.90;;;;;;5094072;28;20010;-67
2022/05/31 01:22:50;;;;;;;;;;;9.90;99.90;;;;;;5094347;28;19931;-67
2022/05/31 01:25:22;;;;;;;;;;;9.90;99.90;;;;;;5094409;28;19928;-67
2022/05/31 01:27:59;;;;;;;;;;;9.80;99.90;;;;;;5094246;28;19916;-67
2022/05/31 01:30:25;;;;;;;;;;;9.90;99.90;;;;;;5092630;28;19991;-66
2022/05/31 01:33:07;;;;;;;;;;;9.90;99.90;;;;;;5094370;28;19934;-67
2022/05/31 01:35:34;;;;;;;;;;;9.90;99.90;;;;;;5094223;28;19968;-67
2022/05/31 01:38:22;;;;;;;;;;;9.70;99.90;;;;;;5094267;28;19916;-67
2022/05/31 01:40:52;;;;;;;;;;;9.70;99.90;;;;;;5082725;28;19943;-67
2022/05/31 01:43:17;;;;;;;;;;;9.70;99.90;;;;;;5093925;28;20376;-67
2022/05/31 01:45:55;;;;;;;;;;;9.70;99.90;;;;;;5094049;28;19920;-67
2022/05/31 01:48:21;;;;;;;;;;;9.60;99.90;;;;;;5093852;28;19915;-67
2022/05/31 01:50:46;;;;;;;;;;;9.60;99.90;;;;;;5093524;28;19922;-67
2022/05/31 01:53:13;;;;;;;;;;;9.60;99.90;;;;;;5093646;28;19920;-67
2022/05/31 01:55:40;;;;;;;;;;;9.70;99.90;;;;;;5093968;28;19920;-67
2022/05/31 01:58:08;;;;;;;;;;;9.60;99.90;;;;;;5093592;28;20420;-67
2022/05/31 02:00:34;;;;;;;;;;;9.60;99.90;;;;;;5093211;28;20057;-67
2022/05/31 02:03:03;;;;;;;;;;;9.70;99.90;;;;;;5093579;28;20450;-67
2022/05/31 02:05:28;;;;;;;;;;;9.70;99.90;;;;;;5093555;28;19926;-66
2022/05/31 02:07:55;;;;;;;;;;;9.60;99.90;;;;;;5093383;28;19915;-67
2022/05/31 02:10:21;;;;;;;;;;;9.70;99.90;;;;;;5093375;28;19916;-67
2022/05/31 02:12:47;;;;;;;;;;;9.70;99.90;;;;;;5093621;28;19916;-67
2022/05/31 02:15:12;;;;;;;;;;;9.70;99.90;;;;;;5093470;28;19920;-67
2022/05/31 02:17:38;;;;;;;;;;;9.80;99.90;;;;;;5093241;28;20311;-67
2022/05/31 02:20:03;;;;;;;;;;;9.80;99.90;;;;;;5092937;28;19973;-67
2022/05/31 02:22:30;;;;;;;;;;;9.80;99.90;;;;;;5092872;28;20014;-67
2022/05/31 02:24:56;;;;;;;;;;;9.80;99.90;;;;;;5093350;28;19970;-67
2022/05/31 02:27:21;;;;;;;;;;;9.70;99.90;;;;;;5093280;28;19951;-67
2022/05/31 02:29:47;;;;;;;;;;;9.70;99.90;;;;;;5092867;28;19916;-67
2022/05/31 02:32:13;;;;;;;;;;;9.70;99.90;;;;;;5092933;28;19920;-67
2022/05/31 02:34:40;;;;;;;;;;;9.70;99.90;;;;;;5092893;28;19923;-67
2022/05/31 02:37:06;;;;;;;;;;;9.70;99.90;;;;;;5092816;28;19916;-67
2022/05/31 02:39:31;;;;;;;;;;;9.70;99.90;;;;;;5092509;28;19922;-67
2022/05/31 02:41:57;;;;;;;;;;;9.70;99.90;;;;;;5092545;28;19927;-67
2022/05/31 02:44:23;;;;;;;;;;;9.70;99.90;;;;;;5092902;28;19916;-67
2022/05/31 02:46:49;;;;;;;;;;;9.80;99.90;;;;;;5092887;28;19920;-67
2022/05/31 02:49:15;;;;;;;;;;;9.80;99.90;;;;;;5092481;28;20283;-67
2022/05/31 02:51:41;;;;;;;;;;;9.80;99.90;;;;;;5092500;28;19923;-67
2022/05/31 02:54:08;;;;;;;;;;;9.80;99.90;;;;;;5092804;28;20010;-67
2022/05/31 02:56:33;;;;;;;;;;;9.80;99.90;;;;;;5092724;28;19923;-67
2022/05/31 02:58:59;;;;;;;;;;;9.80;99.90;;;;;;5092088;28;19920;-67
2022/05/31 03:01:25;;;;;;;;;;;9.90;99.90;;;;;;5092435;28;20010;-67
2022/05/31 03:03:51;;;;;;;;;;;9.90;99.90;;;;;;5092407;28;19915;-67
2022/05/31 03:06:17;;;;;;;;;;;9.90;99.90;;;;;;5092217;28;19927;-67
2022/05/31 03:08:43;;;;;;;;;;;9.90;99.90;;;;;;5092274;28;19920;-67
2022/05/31 03:11:21;;;;;;;;;;;9.90;99.90;;;;;;5092409;28;19946;-67
2022/05/31 03:13:47;;;;;;;;;;;9.90;99.90;;;;;;5092399;28;19920;-67
2022/05/31 03:16:14;;;;;;;;;;;9.90;99.90;;;;;;5092348;28;20448;-67
2022/05/31 03:18:42;;;;;;;;;;;9.90;99.90;;;;;;5091843;28;19919;-67
2022/05/31 03:21:14;;;;;;;;;;;9.90;99.90;;;;;;5092178;28;19920;-67
2022/05/31 03:23:42;;;;;;;;;;;9.90;99.90;;;;;;5092192;28;20372;-67
2022/05/31 03:26:09;;;;;;;;;;;9.90;99.90;;;;;;5091842;28;19922;-67
2022/05/31 03:28:35;;;;;;;;;;;9.90;99.90;;;;;;5088643;28;19919;-68
2022/05/31 03:31:01;;;;;;;;;;;9.90;99.90;;;;;;5088708;28;19977;-67
2022/05/31 03:33:26;;;;;;;;;;;9.90;99.90;;;;;;5089112;28;19915;-67
2022/05/31 03:35:52;;;;;;;;;;;9.90;99.90;;;;;;5090859;28;20391;-67
2022/05/31 03:38:17;;;;;;;;;;;10.00;99.90;;;;;;5091624;28;19916;-68
2022/05/31 03:41:01;;;;;;;;;;;10.00;99.90;;;;;;5090548;28;19981;-67
2022/05/31 03:43:31;;;;;;;;;;;10.00;99.90;;;;;;5090753;28;20281;-67
2022/05/31 03:45:57;;;;;;;;;;;10.00;99.90;;;;;;5090766;28;19949;-67
2022/05/31 03:48:23;;;;;;;;;;;10.00;99.90;;;;;;5091690;28;19916;-67
2022/05/31 03:50:57;;;;;;;;;;;10.00;99.90;;;;;;5091556;28;20323;-67
2022/05/31 03:53:23;;;;;;;;;;;10.00;99.90;;;;;;5091117;28;19964;-67
2022/05/31 03:55:48;;;;;;;;;;;10.00;99.90;;;;;;5091567;28;19923;-67
2022/05/31 03:58:14;;;;;;;;;;;10.00;99.90;;;;;;5091390;28;19920;-67
2022/05/31 04:00:40;;;;;;;;;;;10.00;99.90;;;;;;5091055;28;20428;-67
2022/05/31 04:03:05;;;;;;;;;;;10.00;99.90;;;;;;5091650;28;19926;-67
2022/05/31 04:05:31;;;;;;;;;;;10.10;99.90;;;;;;5091526;28;19916;-67
2022/05/31 04:08:01;;;;;;;;;;;10.00;99.90;;;;;;5091494;28;19916;-67
2022/05/31 04:10:28;;;;;;;;;;;10.00;99.90;;;;;;5091118;28;20314;-67
2022/05/31 04:12:54;;;;;;;;;;;10.00;99.90;;;;;;5091325;28;19998;-67
2022/05/31 04:15:19;;;;;;;;;;;10.00;99.90;;;;;;5091571;28;20336;-67
2022/05/31 04:17:45;;;;;;;;;;;10.00;99.90;;;;;;5091372;28;20031;-67
2022/05/31 04:20:10;;;;;;;;;;;10.00;99.90;;;;;;5091117;28;19923;-67
2022/05/31 04:22:36;;;;;;;;;;;10.00;99.90;;;;;;5091200;28;20016;-67
2022/05/31 04:25:02;;;;;;;;;;;10.00;99.90;;;;;;5091253;28;19916;-67
2022/05/31 04:27:28;;;;;;;;;;;10.00;99.90;;;;;;5091089;28;19916;-67
2022/05/31 04:29:54;;;;;;;;;;;10.00;99.90;;;;;;5091104;28;20295;-67
2022/05/31 04:32:20;;;;;;;;;;;10.10;99.90;;;;;;5091249;28;19916;-67
2022/05/31 04:34:45;;;;;;;;;;;10.00;99.90;;;;;;5091035;28;20388;-67
2022/05/31 04:37:11;;;;;;;;;;;10.00;99.90;;;;;;5091216;28;19916;-67
2022/05/31 04:39:36;;;;;;;;;;;10.10;99.90;;;;;;5090870;28;20376;-67
2022/05/31 04:42:02;;;;;;;;;;;10.10;99.90;;;;;;5090873;28;20304;-67
2022/05/31 04:44:27;;;;;;;;;;;10.10;99.90;;;;;;5091564;28;19977;-67
2022/05/31 04:46:53;;;;;;;;;;;10.10;99.90;;;;;;5091231;28;19924;-67
2022/05/31 04:49:19;;;;;;;;;;;10.10;99.90;;;;;;5090929;28;19919;-67
2022/05/31 04:51:45;;;;;;;;;;;10.10;99.90;;;;;;5090946;28;20325;-67
2022/05/31 04:54:11;;;;;;;;;;;10.20;99.90;;;;;;5091045;28;19923;-67
2022/05/31 04:56:36;;;;;;;;;;;10.20;99.90;;;;;;5090822;28;19916;-67
2022/05/31 04:59:02;;;;;;;;;;;10.20;99.90;;;;;;5090743;28;19969;-68
2022/05/31 05:01:27;;;;;;;;;;;10.10;99.90;;;;;;5090903;28;20365;-67
2022/05/31 05:03:53;;;;;;;;;;;10.20;99.90;;;;;;5092604;28;20459;-67
2022/05/31 05:06:19;;;;;;;;;;;10.20;99.90;;;;;;5094758;28;19924;-67
2022/05/31 05:08:45;;;;;;;;;;;10.20;99.90;;;;;;5094432;28;19938;-67
2022/05/31 05:11:12;;;;;;;;;;;10.20;99.90;;;;;;5094544;28;20049;-67
2022/05/31 05:13:38;;;;;;;;;;;10.20;99.90;;;;;;5094748;28;19923;-67
2022/05/31 05:16:05;;;;;;;;;;;10.30;99.90;;;;;;5094693;28;20069;-67
2022/05/31 05:18:31;;;;;;;;;;;10.30;99.90;;;;;;5094388;28;20268;-67
2022/05/31 05:20:58;;;;;;;;;;;10.30;99.90;;;;;;5094397;28;19926;-67
2022/05/31 05:23:24;;;;;;;;;;;10.40;99.90;;;;;;5094497;28;19965;-67
2022/05/31 05:25:50;;;;;;;;;;;10.40;99.90;;;;;;5094328;28;19951;-67
2022/05/31 05:31:00;;;;;;;;;;;10.30;99.90;;;;;;5094271;28;20022;-67
2022/05/31 05:33:27;;;;;;;;;;;10.40;99.90;;;;;;5094285;28;20023;-67
2022/05/31 05:35:52;;;;;;;;;;;10.40;99.90;;;;;;5094132;28;20072;-67
2022/05/31 05:38:18;;;;;;;;;;;10.50;99.90;;;;;;5093918;28;19963;-67
2022/05/31 05:40:43;;;;;;;;;;;10.50;99.90;;;;;;5093906;28;19924;-67
2022/05/31 05:43:09;;;;;;;;;;;10.50;99.90;;;;;;5094154;28;19922;-67
2022/05/31 05:45:35;;;;;;;;;;;10.60;99.90;;;;;;5094008;28;19920;-67
2022/05/31 05:48:01;;;;;;;;;;;10.60;99.90;;;;;;5094004;28;20006;-67
2022/05/31 05:50:27;;;;;;;;;;;10.70;99.90;;;;;;5093589;28;19966;-67
2022/05/31 05:52:54;;;;;;;;;;;10.70;99.90;;;;;;5093856;28;20375;-67
2022/05/31 05:55:19;;;;;;;;;;;10.70;99.90;;;;;;5094017;28;19919;-67
2022/05/31 05:57:45;;;;;;;;;;;10.80;99.90;;;;;;5093897;28;20441;-67
2022/05/31 06:00:11;;;;;;;;;;;10.80;99.90;;;;;;5093369;28;19916;-67
2022/05/31 06:02:39;;;;;;;;;;;10.80;99.90;;;;;;5093455;28;20374;-67
2022/05/31 06:05:07;;;;;;;;;;;10.80;99.90;;;;;;5093564;28;19916;-67
2022/05/31 06:07:34;;;;;;;;;;;10.90;99.90;;;;;;5093528;28;19920;-67
2022/05/31 06:10:09;;;;;;;;;;;10.90;99.90;;;;;;5093416;28;19930;-67
2022/05/31 06:12:38;;;;;;;;;;;11.00;99.90;;;;;;5093472;28;20002;-67
2022/05/31 06:15:08;;;;;;;;;;;11.00;99.90;;;;;;5092899;28;19916;-67
2022/05/31 06:17:37;;;;;;;;;;;11.00;99.90;;;;;;5093344;28;19959;-67
2022/05/31 06:20:05;;;;;;;;;;;11.20;99.90;;;;;;5092939;28;19967;-67
2022/05/31 06:22:31;;;;;;;;;;;11.30;99.90;;;;;;5092989;28;19982;-67
2022/05/31 06:24:58;;;;;;;;;;;11.30;99.90;;;;;;5093394;28;19919;-67
2022/05/31 06:27:23;;;;;;;;;;;11.50;99.90;;;;;;5093247;28;19969;-67
2022/05/31 06:29:49;;;;;;;;;;;11.70;99.90;;;;;;5092821;28;19998;-67
2022/05/31 06:32:16;;;;;;;;;;;11.80;99.90;;;;;;5092878;28;19920;-67
2022/05/31 06:34:41;;;;;;;;;;;12.10;99.90;;;;;;5092882;28;19967;-67
2022/05/31 06:37:08;;;;;;;;;;;12.30;99.90;;;;;;5093133;28;19963;-67
2022/05/31 06:39:40;;;;;;;;;;;12.50;99.90;;;;;;5092785;28;19919;-67
2022/05/31 06:42:06;;;;;;;;;;;12.60;99.90;;;;;;5092800;28;20035;-67
2022/05/31 06:44:32;;;;;;;;;;;12.70;99.90;;;;;;5092922;28;20439;-67
2022/05/31 06:46:58;;;;;;;;;;;12.70;99.90;;;;;;5092795;28;19916;-67
2022/05/31 06:49:23;;;;;;;;;;;12.90;99.90;;;;;;5092649;28;19973;-67
2022/05/31 06:57:17;;;;;;;;;;;13.30;99.90;;;;;;5092579;28;19962;-67
2022/05/31 06:59:43;;;;;;;;;;;13.60;99.90;;;;;;5092179;28;19963;-67
2022/05/31 07:02:08;;;;;;;;;;;13.70;99.90;;;;;;5092312;28;19924;-67
2022/05/31 07:04:34;;;;;;;;;;;13.70;99.90;;;;;;5092540;28;20002;-68
2022/05/31 07:07:00;;;;;;;;;;;13.70;99.90;;;;;;5092367;28;20367;-67
2022/05/31 07:09:26;;;;;;;;;;;13.90;99.90;;;;;;5092052;28;19923;-67
2022/05/31 07:11:51;;;;;;;;;;;14.00;99.90;;;;;;5092261;28;19916;-67
2022/05/31 07:14:16;;;;;;;;;;;14.20;99.90;;;;;;5092426;28;20372;-67
2022/05/31 07:16:42;;;;;;;;;;;14.10;99.90;;;;;;5092423;28;19923;-68
2022/05/31 07:19:07;;;;;;;;;;;14.20;99.90;;;;;;5092068;28;19969;-67
2022/05/31 07:21:33;;;;;;;;;;;14.30;99.90;;;;;;5092092;28;20360;-68
2022/05/31 07:23:58;;;;;;;;;;;14.40;99.90;;;;;;5092220;28;19920;-68
2022/05/31 07:26:24;;;;;;;;;;;14.30;99.90;;;;;;5091632;28;19915;-67
2022/05/31 07:28:50;;;;;;;;;;;14.40;99.90;;;;;;5091418;28;19962;-68
2022/05/31 07:31:15;;;;;;;;;;;14.40;99.90;;;;;;5092129;28;20364;-67
2022/05/31 07:33:41;;;;;;;;;;;14.60;99.90;;;;;;5090957;28;19916;-68
2022/05/31 07:36:07;;;;;;;;;;;14.70;99.90;;;;;;5091910;28;20015;-67
2022/05/31 07:38:33;;;;;;;;;;;14.90;99.90;;;;;;5091640;28;19923;-67
2022/05/31 07:40:59;;;;;;;;;;;14.90;99.90;;;;;;5091593;28;19931;-67
2022/05/31 07:43:24;;;;;;;;;;;14.90;99.90;;;;;;5091887;28;20299;-67
2022/05/31 07:45:58;;;;;;;;;;;14.90;99.90;;;;;;5091937;28;19916;-68
2022/05/31 07:48:23;;;;;;;;;;;14.80;99.90;;;;;;5091738;28;20281;-67
2022/05/31 07:50:49;;;;;;;;;;;15.00;99.90;;;;;;5091498;28;19916;-67
2022/05/31 07:53:15;;;;;;;;;;;15.10;99.90;;;;;;5091670;28;20399;-68
2022/05/31 07:55:40;;;;;;;;;;;15.20;99.90;;;;;;5091483;28;19916;-68
2022/05/31 08:00:50;;;;;;;;;;;15.20;99.90;;;;;;5091247;28;20474;-68
2022/05/31 08:03:15;;;;;;;;;;;15.30;99.90;;;;;;5091588;28;19919;-68
2022/05/31 08:05:41;;;;;;;;;;;15.40;99.90;;;;;;5091501;28;20003;-68
2022/05/31 08:08:06;;;;;;;;;;;15.50;99.90;;;;;;5091421;28;20295;-68
2022/05/31 08:10:32;;;;;;;;;;;15.50;99.90;;;;;;5091065;28;20343;-68
2022/05/31 08:12:57;;;;;;;;;;;15.50;99.90;;;;;;5091504;28;19916;-68
2022/05/31 08:15:23;;;;;;;;;;;15.60;99.90;;;;;;5091441;28;19920;-68
2022/05/31 08:17:48;;;;;;;;;;;15.70;99.90;;;;;;5091408;28;19920;-67
2022/05/31 08:20:16;;;;;;;;;;;15.90;99.90;;;;;;5091034;28;19923;-67
2022/05/31 08:22:43;;;;;;;;;;;16.00;99.90;;;;;;5091094;28;20368;-68
2022/05/31 08:25:08;;;;;;;;;;;16.00;99.90;;;;;;5091487;28;20014;-68
2022/05/31 08:27:34;;;;;;;;;;;16.10;99.90;;;;;;5091400;28;20428;-68
2022/05/31 08:30:01;;;;;;;;;;;16.20;99.90;;;;;;5090923;28;19951;-68
2022/05/31 08:32:26;;;;;;;;;;;16.20;99.90;;;;;;5091217;28;19959;-68
2022/05/31 08:34:52;;;;;;;;;;;16.30;99.90;;;;;;5091173;28;19955;-68
2022/05/31 08:37:17;;;;;;;;;;;16.30;99.90;;;;;;5091130;28;20405;-68
2022/05/31 08:39:43;;;;;;;;;;;16.50;99.90;;;;;;5094237;28;19920;-68
2022/05/31 08:42:10;;;;;;;;;;;16.40;99.90;;;;;;5095219;28;19924;-68
2022/05/31 08:44:51;;;;;;;;;;;16.30;99.90;;;;;;5095300;28;19916;-68
2022/05/31 08:47:16;;;;;;;;;;;16.50;99.90;;;;;;5095196;28;20011;-68
2022/05/31 08:52:50;;;;;;;;;;;16.50;99.90;;;;;;5095208;28;20295;-68
2022/05/31 08:58:08;;;;;;;;;;;16.80;99.90;;;;;;5094878;28;19920;-67
2022/05/31 09:00:35;;;;;;;;;;;16.80;99.90;;;;;;5094338;28;19923;-67
2022/05/31 09:03:03;;;;;;;;;;;16.90;99.90;;;;;;5094903;28;19920;-68
2022/05/31 09:05:34;;;;;;;;;;;16.80;99.90;;;;;;5094653;28;20425;-68
2022/05/31 09:08:13;;;;;;;;;;;16.90;99.90;;;;;;5094806;28;19916;-68
2022/05/31 09:11:01;;;;;;;;;;;17.00;99.90;;;;;;5094339;28;19920;-68
2022/05/31 09:13:29;;;;;;;;;;;16.90;99.90;;;;;;5094891;28;20452;-68
2022/05/31 09:15:56;;;;;;;;;;;16.90;99.90;;;;;;5094842;28;19920;-67
2022/05/31 09:18:26;;;;;;;;;;;17.00;99.90;;;;;;5094601;28;19969;-68
2022/05/31 09:20:53;;;;;;;;;;;16.70;99.90;;;;;;5094400;28;19963;-67
2022/05/31 09:23:21;;;;;;;;;;;16.70;99.50;;;;;;5094385;28;19926;-68
2022/05/31 09:25:49;;;;;;;;;;;16.80;99.90;;;;;;5094488;28;19951;-68
2022/05/31 09:28:21;;;;;;;;;;;16.90;98.90;;;;;;5094467;28;20011;-68
2022/05/31 09:30:47;;;;;;;;;;;16.70;98.50;;;;;;5094196;28;19916;-68
2022/05/31 09:33:24;;;;;;;;;;;16.90;99.90;;;;;;5094337;28;20003;-68
2022/05/31 09:36:07;;;;;;;;;;;17.00;99.90;;;;;;5094025;28;19924;-68
2022/05/31 09:38:52;;;;;;;;;;;17.00;92.20;;;;;;5094028;28;20018;-68
2022/05/31 09:41:36;;;;;;;;;;;17.00;93.70;;;;;;5093833;28;19920;-67
2022/05/31 09:44:17;;;;;;;;;;;17.20;97.60;;;;;;5093958;28;19922;-68
2022/05/31 09:46:43;;;;;;;;;;;17.40;71.30;;;;;;5094230;28;19916;-68
2022/05/31 09:49:13;;;;;;;;;;;17.20;83.30;;;;;;5093814;28;19967;-68
2022/05/31 09:51:40;;;;;;;;;;;17.30;95.20;;;;;;5093109;28;19919;-68
2022/05/31 09:57:06;;;;;;;;;;;17.20;87.80;;;;;;5094110;28;19916;-68
2022/05/31 09:59:33;;;;;;;;;;;17.00;93.80;;;;;;5093552;28;19915;-68
2022/05/31 10:02:17;;;;;;;;;;;16.90;94.80;;;;;;5093566;28;19924;-68
2022/05/31 10:04:43;;;;;;;;;;;16.90;94.00;;;;;;5093580;28;20371;-68
2022/05/31 10:07:08;;;;;;;;;;;17.10;97.60;;;;;;5093465;28;19927;-68
2022/05/31 10:09:38;;;;;;;;;;;17.10;91.70;;;;;;5093402;28;20031;-68
2022/05/31 10:12:11;;;;;;;;;;;17.10;89.80;;;;;;5093570;28;20576;-68
2022/05/31 10:14:39;;;;;;;;;;;17.00;85.30;;;;;;5093583;28;20351;-68
2022/05/31 10:17:14;;;;;;;;;;;17.00;74.80;;;;;;5093484;28;19943;-68
2022/05/31 10:19:40;;;;;;;;;;;17.00;85.90;;;;;;5093295;28;19916;-68
2022/05/31 10:22:20;;;;;;;;;;;17.10;80.40;;;;;;5093328;28;19920;-68
2022/05/31 10:24:46;;;;;;;;;;;17.10;84.50;;;;;;5093197;28;19920;-68
2022/05/31 10:27:13;;;;;;;;;;;17.30;66.80;;;;;;5093313;28;19915;-67
2022/05/31 10:29:47;;;;;;;;;;;17.40;82.90;;;;;;5092874;28;19931;-68
2022/05/31 10:32:30;;;;;;;;;;;17.60;80.50;;;;;;5093196;28;19920;-68
2022/05/31 10:35:14;;;;;;;;;;;17.30;60.50;;;;;;5093145;28;19920;-68
2022/05/31 10:37:55;;;;;;;;;;;17.30;66.60;;;;;;5093114;28;19920;-68
2022/05/31 10:40:23;;;;;;;;;;;17.20;72.60;;;;;;5092506;28;20355;-68
2022/05/31 10:42:50;;;;;;;;;;;17.30;85.80;;;;;;5093018;28;19920;-68
2022/05/31 10:45:21;;;;;;;;;;;17.30;89.00;;;;;;5093034;28;20003;-68
2022/05/31 10:47:46;;;;;;;;;;;17.30;80.30;;;;;;5092898;28;20006;-68
2022/05/31 10:50:13;;;;;;;;;;;17.30;84.30;;;;;;5092546;28;19924;-68
2022/05/31 10:52:41;;;;;;;;;;;17.20;80.70;;;;;;5092681;28;19998;-68
2022/05/31 10:55:19;;;;;;;;;;;17.30;92.80;;;;;;5092595;28;20368;-68
2022/05/31 10:58:03;;;;;;;;;;;17.30;86.00;;;;;;5092879;28;19919;-68
2022/05/31 11:00:35;;;;;;;;;;;17.20;81.20;;;;;;5092208;28;19927;-68
2022/05/31 11:03:09;;;;;;;;;;;17.20;93.00;;;;;;5092395;28;19920;-68
2022/05/31 11:05:37;;;;;;;;;;;17.30;84.60;;;;;;5092726;28;20354;-68
2022/05/31 11:14:11;;;;;;;;;;;17.30;89.30;;;;;;5092567;28;19916;-68
2022/05/31 11:16:50;;;;;;;;;;;17.10;72.60;;;;;;5092425;28;19969;-67
2022/05/31 11:19:34;;;;;;;;;;;17.20;73.10;;;;;;5091983;28;20009;-67
2022/05/31 11:22:08;;;;;;;;;;;17.40;82.10;;;;;;5091914;28;19931;-68
2022/05/31 11:24:39;;;;;;;;;;;17.20;78.60;;;;;;5092305;28;19919;-68
2022/05/31 11:27:04;;;;;;;;;;;17.30;90.70;;;;;;5092244;28;20010;-68
2022/05/31 11:29:37;;;;;;;;;;;17.30;90.90;;;;;;5091810;28;20392;-68
2022/05/31 11:32:07;;;;;;;;;;;17.40;92.20;;;;;;5092052;28;20006;-68
2022/05/31 11:34:41;;;;;;;;;;;17.30;88.40;;;;;;5091870;28;20007;-68
2022/05/31 11:37:26;;;;;;;;;;;17.40;94.80;;;;;;5092136;28;20303;-68
2022/05/31 11:40:17;;;;;;;;;;;17.40;92.60;;;;;;5091757;28;19916;-68
2022/05/31 11:43:04;;;;;;;;;;;17.40;89.40;;;;;;5091776;28;19927;-68
2022/05/31 11:45:34;;;;;;;;;;;17.40;91.70;;;;;;5091975;28;20342;-68
2022/05/31 11:48:16;;;;;;;;;;;17.40;92.40;;;;;;5091921;28;19916;-68
2022/05/31 11:50:44;;;;;;;;;;;17.30;91.30;;;;;;5091657;28;20375;-68
2022/05/31 11:53:16;;;;;;;;;;;17.40;94.90;;;;;;5091552;28;19920;-68
2022/05/31 11:55:41;;;;;;;;;;;17.40;94.80;;;;;;5091698;28;20387;-68
2022/05/31 11:58:13;;;;;;;;;;;17.40;93.00;;;;;;5091505;28;19916;-68
2022/05/31 12:01:02;;;;;;;;;;;17.60;95.60;;;;;;5091266;28;19965;-68
2022/05/31 12:03:31;;;;;;;;;;;17.70;96.10;;;;;;5051501;28;20379;-68
2022/05/31 12:06:17;;;;;;;;;;;17.90;95.70;;;;;;5091593;28;19965;-68
2022/05/31 12:08:46;;;;;;;;;;;17.90;95.40;;;;;;5076728;28;19916;-68
2022/05/31 12:11:15;;;;;;;;;;;18.00;96.20;;;;;;5091446;28;19916;-68
2022/05/31 12:13:44;;;;;;;;;;;17.90;95.50;;;;;;5090928;28;20502;-68
2022/05/31 12:16:10;;;;;;;;;;;17.70;94.50;;;;;;5091342;28;19916;-69
2022/05/31 12:18:37;;;;;;;;;;;17.70;95.70;;;;;;5091263;28;19923;-68
2022/05/31 12:21:16;;;;;;;;;;;17.70;95.70;;;;;;5091373;28;19923;-68
2022/05/31 12:23:51;;;;;;;;;;;17.70;97.60;;;;;;5091517;28;19939;-68
2022/05/31 12:26:32;;;;;;;;;;;17.90;96.40;;;;;;5091402;28;19998;-68
2022/05/31 12:29:11;;;;;;;;;;;17.80;94.60;;;;;;5091255;28;19916;-67
2022/05/31 12:31:38;;;;;;;;;;;17.80;94.70;;;;;;5091315;28;19984;-68
2022/05/31 12:34:13;;;;;;;;;;;18.00;95.80;;;;;;5091365;28;19916;-68
2022/05/31 12:36:55;;;;;;;;;;;18.10;93.70;;;;;;5091284;28;19916;-68
2022/05/31 12:39:23;;;;;;;;;;;18.10;89.00;;;;;;5091256;28;20011;-68
2022/05/31 12:41:50;;;;;;;;;;;18.10;94.30;;;;;;5091168;28;19920;-68
2022/05/31 12:44:26;;;;;;;;;;;18.20;86.20;;;;;;5091322;28;19995;-68
2022/05/31 12:46:51;;;;;;;;;;;18.30;92.90;;;;;;5092268;28;19915;-68
2022/05/31 12:49:17;;;;;;;;;;;18.30;90.10;;;;;;5091096;28;20391;-68
2022/05/31 12:52:03;;;;;;;;;;;18.30;87.30;;;;;;5091081;28;19924;-68
2022/05/31 12:54:43;;;;;;;;;;;18.10;92.80;;;;;;5090869;28;20317;-68
2022/05/31 13:00:27;;;;;;;;;;;18.10;67.80;;;;;;5090661;28;20360;-67
2022/05/31 13:02:54;;;;;;;;;;;18.00;90.90;;;;;;5091366;28;19955;-68
2022/05/31 13:05:37;;;;;;;;;;;17.90;91.90;;;;;;5091124;28;19943;-68
2022/05/31 13:08:10;;;;;;;;;;;17.80;79.30;;;;;;5090949;28;20524;-68
2022/05/31 13:10:37;;;;;;;;;;;17.90;82.40;;;;;;5090609;28;19916;-68
2022/05/31 13:21:17;;;;;;;;;;;17.90;81.00;;;;;;5090555;28;19919;-67
2022/05/31 13:23:46;;;;;;;;;;;17.80;82.50;;;;;;5091132;28;19969;-68
2022/05/31 13:26:11;;;;;;;;;;;17.70;76.30;;;;;;5092936;28;19923;-68
2022/05/31 13:28:42;;;;;;;;;;;17.60;75.50;;;;;;5094035;28;19916;-67
2022/05/31 13:31:10;;;;;;;;;;;17.60;61.70;;;;;;5094199;28;20376;-68
2022/05/31 13:33:37;;;;;;;;;;;17.50;59.70;;;;;;5094181;28;19915;-68
2022/05/31 13:36:08;;;;;;;;;;;17.40;58.30;;;;;;5094381;28;19916;-68
2022/05/31 13:38:35;;;;;;;;;;;17.40;66.30;;;;;;5094119;28;20022;-68
2022/05/31 13:41:02;;;;;;;;;;;17.50;71.70;;;;;;5094107;28;19961;-68
2022/05/31 13:43:36;;;;;;;;;;;17.40;71.80;;;;;;5094163;28;19969;-68
2022/05/31 13:46:15;;;;;;;;;;;17.40;79.70;;;;;;5094066;28;19919;-68
2022/05/31 13:48:42;;;;;;;;;;;17.40;85.30;;;;;;5094044;28;19999;-68
2022/05/31 13:51:10;;;;;;;;;;;17.40;77.90;;;;;;5092859;28;19939;-67
2022/05/31 13:53:42;;;;;;;;;;;17.50;86.10;;;;;;5093999;28;19916;-68
2022/05/31 13:56:11;;;;;;;;;;;17.40;86.20;;;;;;5093590;28;19916;-68
2022/05/31 13:58:38;;;;;;;;;;;17.30;90.20;;;;;;5093643;28;19916;-68
2022/05/31 14:01:05;;;;;;;;;;;17.40;89.00;;;;;;5093752;28;19916;-68
2022/05/31 14:03:33;;;;;;;;;;;17.40;75.50;;;;;;5093783;28;19963;-67
2022/05/31 14:06:08;;;;;;;;;;;17.30;78.40;;;;;;5093701;28;20238;-68
2022/05/31 14:08:39;;;;;;;;;;;17.40;83.60;;;;;;5093289;28;19916;-68
2022/05/31 14:11:09;;;;;;;;;;;17.40;80.30;;;;;;5093725;28;19916;-68
2022/05/31 14:13:34;;;;;;;;;;;17.50;86.50;;;;;;5093645;28;19924;-68
2022/05/31 14:16:10;;;;;;;;;;;17.50;84.00;;;;;;5093618;28;19969;-68
2022/05/31 14:18:43;;;;;;;;;;;17.60;84.60;;;;;;5093209;28;19915;-68
2022/05/31 14:21:08;;;;;;;;;;;17.50;81.80;;;;;;5093272;28;19939;-68
2022/05/31 14:23:34;;;;;;;;;;;17.70;76.90;;;;;;5093652;28;20367;-68
2022/05/31 14:26:01;;;;;;;;;;;17.60;81.50;;;;;;5093945;28;19959;-68
2022/05/31 14:28:26;;;;;;;;;;;17.70;76.70;;;;;;5093678;28;19916;-68
2022/05/31 14:31:02;;;;;;;;;;;17.70;78.80;;;;;;5093550;28;19961;-67
2022/05/31 14:33:29;;;;;;;;;;;17.80;72.80;;;;;;5093645;28;19968;-68
2022/05/31 14:35:56;;;;;;;;;;;17.80;69.00;;;;;;5092824;28;20016;-68
2022/05/31 14:38:25;;;;;;;;;;;17.80;65.90;;;;;;5093532;28;19916;-68
2022/05/31 14:40:56;;;;;;;;;;;17.70;65.20;;;;;;5093520;28;19916;-68
2022/05/31 14:43:28;;;;;;;;;;;17.80;74.40;;;;;;5093054;28;19927;-68
2022/05/31 14:45:53;;;;;;;;;;;17.90;73.60;;;;;;5092916;28;19967;-67
2022/05/31 14:48:28;;;;;;;;;;;17.90;81.90;;;;;;5092598;28;19927;-68
2022/05/31 14:50:58;;;;;;;;;;;17.80;78.60;;;;;;5092890;28;20287;-67
2022/05/31 14:53:32;;;;;;;;;;;17.70;79.00;;;;;;5092689;28;20452;-68
2022/05/31 14:55:57;;;;;;;;;;;18.00;79.80;;;;;;5092517;28;19916;-68
2022/05/31 14:58:42;;;;;;;;;;;17.90;83.30;;;;;;5092493;28;20284;-68
2022/05/31 15:01:14;;;;;;;;;;;18.00;75.30;;;;;;5092639;28;19916;-68
2022/05/31 15:03:41;;;;;;;;;;;18.00;80.80;;;;;;5092527;28;19931;-68
2022/05/31 15:06:09;;;;;;;;;;;18.10;84.10;;;;;;5092633;28;19915;-68